Time;durP1;ratioP1;P1;durP2;ratioP2;P2;SDS_P1;SDS_P2;PMS_P1;PMS_P2;Temp;Humidity;BMP_temperature;BMP_pressure;BME280_temperature;BME280_humidity;BME280_pressure;Samples;Min_cycle;Max_cycle;Signal;HPM_P1;HPM_P2
2023/06/16 00:00:11;;;;;;;14.82;7.72;;;16.50;99.90;;;;;;5096281;28;20066;-79
2023/06/16 00:02:41;;;;;;;14.05;7.13;;;16.50;99.90;;;;;;5095622;28;20040;-78
2023/06/16 00:05:12;;;;;;;21.45;8.02;;;16.40;99.90;;;;;;5093556;28;20537;-79
2023/06/16 00:07:39;;;;;;;18.40;8.20;;;16.30;99.90;;;;;;5095462;28;20044;-79
2023/06/16 00:10:06;;;;;;;17.85;8.05;;;16.20;99.90;;;;;;5094948;28;20044;-79
2023/06/16 00:12:33;;;;;;;16.42;7.53;;;16.10;99.90;;;;;;5093561;28;20040;-80
2023/06/16 00:15:00;;;;;;;14.93;7.50;;;16.10;99.90;;;;;;5094603;28;20044;-77
2023/06/16 00:17:27;;;;;;;15.35;7.50;;;16.00;99.90;;;;;;5094932;28;20462;-80
2023/06/16 00:19:57;;;;;;;13.82;7.15;;;16.00;99.90;;;;;;5095819;28;20086;-78
2023/06/16 00:22:25;;;;;;;21.27;7.22;;;16.00;99.90;;;;;;5095032;28;20044;-79
2023/06/16 00:27:38;;;;;;;14.25;7.75;;;16.00;99.90;;;;;;5095247;28;20071;-79
2023/06/16 00:30:05;;;;;;;16.92;7.30;;;16.00;99.90;;;;;;5091393;28;20081;-81
2023/06/16 00:32:31;;;;;;;13.90;6.55;;;15.90;99.90;;;;;;5073088;28;20417;-78
2023/06/16 00:34:59;;;;;;;13.23;6.70;;;15.90;99.90;;;;;;5073889;28;20068;-79
2023/06/16 00:37:25;;;;;;;13.18;6.85;;;15.90;99.90;;;;;;5073741;28;20047;-78
2023/06/16 00:39:52;;;;;;;16.77;7.00;;;15.80;99.90;;;;;;5073518;28;20535;-79
2023/06/16 00:42:19;;;;;;;13.02;6.03;;;15.70;99.90;;;;;;5073445;28;20044;-80
2023/06/16 00:44:48;;;;;;;17.08;5.97;;;15.70;99.90;;;;;;5073297;28;20075;-80
2023/06/16 00:47:14;;;;;;;15.98;5.93;;;15.70;99.90;;;;;;5073877;28;20433;-78
2023/06/16 00:49:41;;;;;;;13.82;6.28;;;15.60;99.90;;;;;;5073942;28;20071;-79
2023/06/16 00:52:08;;;;;;;20.08;6.65;;;15.60;99.90;;;;;;5073538;28;20074;-78
2023/06/16 00:54:36;;;;;;;17.27;6.63;;;15.60;99.90;;;;;;5074644;28;20064;-79
2023/06/16 00:57:03;;;;;;;14.15;6.30;;;15.50;99.90;;;;;;5056264;28;20052;-77
2023/06/16 00:59:29;;;;;;;14.20;6.63;;;15.40;99.90;;;;;;5057028;28;20390;-79
2023/06/16 01:01:56;;;;;;;13.07;6.28;;;15.40;99.90;;;;;;5074387;28;20044;-79
2023/06/16 01:04:23;;;;;;;20.92;6.97;;;15.30;99.90;;;;;;5073652;28;20041;-78
2023/06/16 01:06:52;;;;;;;14.52;6.25;;;15.30;99.90;;;;;;5074260;28;20115;-78
2023/06/16 01:09:18;;;;;;;13.38;7.32;;;15.20;99.90;;;;;;5074573;28;20037;-78
2023/06/16 01:11:45;;;;;;;14.25;7.15;;;15.10;99.90;;;;;;5086504;28;20040;-80
2023/06/16 01:14:14;;;;;;;17.30;7.60;;;15.00;99.90;;;;;;5076568;28;20040;-80
2023/06/16 01:16:41;;;;;;;14.10;6.82;;;15.00;99.90;;;;;;5094579;28;20044;-79
2023/06/16 01:19:08;;;;;;;14.25;7.10;;;14.90;99.90;;;;;;5092610;28;20060;-80
2023/06/16 01:21:37;;;;;;;15.88;7.00;;;14.90;99.90;;;;;;5093371;28;20047;-79
2023/06/16 01:24:04;;;;;;;11.90;6.57;;;14.90;99.90;;;;;;5093929;28;20047;-79
2023/06/16 01:26:31;;;;;;;14.63;7.40;;;15.00;99.90;;;;;;5093782;28;20044;-80
2023/06/16 01:28:58;;;;;;;15.52;6.80;;;14.90;99.90;;;;;;5094967;28;20075;-78
2023/06/16 01:31:25;;;;;;;13.88;7.03;;;15.00;99.90;;;;;;5078576;28;20047;-79
2023/06/16 01:33:51;;;;;;;14.23;7.22;;;14.90;99.90;;;;;;5072606;28;20433;-79
2023/06/16 01:36:22;;;;;;;15.10;7.32;;;14.90;99.90;;;;;;5037252;28;20045;-79
2023/06/16 01:38:51;;;;;;;16.45;6.68;;;14.90;99.90;;;;;;5035937;28;20059;-79
2023/06/16 01:41:18;;;;;;;13.50;6.75;;;14.80;99.90;;;;;;5036281;28;20076;-78
2023/06/16 01:43:45;;;;;;;18.08;7.28;;;14.80;99.90;;;;;;5036241;28;20079;-80
2023/06/16 01:46:12;;;;;;;14.45;6.78;;;14.80;99.90;;;;;;5020097;28;20091;-78
2023/06/16 01:48:41;;;;;;;15.48;7.18;;;14.80;99.90;;;;;;5036474;28;20059;-80
2023/06/16 01:51:08;;;;;;;21.38;7.63;;;14.80;99.90;;;;;;5039297;28;20041;-80
2023/06/16 01:53:34;;;;;;;14.20;6.75;;;14.70;99.90;;;;;;5057655;28;20045;-79
2023/06/16 01:56:02;;;;;;;14.65;6.60;;;14.70;99.90;;;;;;5040582;28;20037;-79
2023/06/16 01:58:30;;;;;;;14.70;7.25;;;14.60;99.90;;;;;;5022886;28;20135;-78
2023/06/16 02:00:57;;;;;;;14.25;6.60;;;14.60;99.90;;;;;;5023508;28;20579;-78
2023/06/16 02:03:24;;;;;;;15.38;7.32;;;14.50;99.90;;;;;;5039964;28;20048;-81
2023/06/16 02:05:51;;;;;;;16.58;7.32;;;14.50;99.90;;;;;;5039571;28;20040;-80
2023/06/16 02:08:18;;;;;;;14.20;7.03;;;14.50;99.90;;;;;;5023489;28;20067;-79
2023/06/16 02:10:44;;;;;;;14.35;6.95;;;14.40;99.90;;;;;;5039104;28;20049;-80
2023/06/16 02:13:11;;;;;;;13.75;6.50;;;14.40;99.90;;;;;;5040360;28;20044;-78
2023/06/16 02:15:39;;;;;;;17.52;7.55;;;14.30;99.90;;;;;;5039800;28;20041;-79
2023/06/16 02:18:09;;;;;;;14.35;7.13;;;14.30;99.90;;;;;;5022723;28;20443;-79
2023/06/16 02:20:36;;;;;;;15.50;6.68;;;14.20;99.90;;;;;;5039533;28;20049;-80
2023/06/16 02:23:03;;;;;;;15.68;6.80;;;14.10;99.90;;;;;;5023320;28;20106;-79
2023/06/16 02:25:29;;;;;;;14.02;6.80;;;14.20;99.90;;;;;;5038665;28;20139;-79
2023/06/16 02:27:56;;;;;;;15.00;6.40;;;14.10;99.90;;;;;;5040184;28;20470;-80
2023/06/16 02:30:23;;;;;;;15.02;6.65;;;14.10;99.90;;;;;;5055962;28;20045;-79
2023/06/16 02:32:50;;;;;;;15.13;6.35;;;14.10;99.90;;;;;;5040334;28;20048;-80
2023/06/16 02:35:29;;;;;;;17.50;6.43;;;14.10;99.90;;;;;;5065552;28;20056;-79
2023/06/16 02:37:56;;;;;;;14.35;6.80;;;14.10;99.90;;;;;;5076263;28;20116;-80
2023/06/16 02:40:24;;;;;;;13.48;6.47;;;14.10;99.90;;;;;;5075838;28;20090;-80
2023/06/16 02:42:51;;;;;;;13.13;6.50;;;14.10;99.90;;;;;;5077219;28;20127;-78
2023/06/16 02:45:18;;;;;;;13.93;5.90;;;14.10;99.90;;;;;;5058518;28;20048;-78
2023/06/16 02:47:46;;;;;;;11.30;6.38;;;14.00;99.90;;;;;;5076334;28;20079;-80
2023/06/16 02:50:14;;;;;;;12.60;5.97;;;14.00;99.90;;;;;;5075015;28;20473;-80
2023/06/16 02:52:42;;;;;;;13.40;6.40;;;13.90;99.90;;;;;;5075832;28;20043;-79
2023/06/16 02:55:13;;;;;;;12.57;5.80;;;13.90;99.90;;;;;;5076465;28;20402;-79
2023/06/16 02:57:44;;;;;;;12.90;7.00;;;13.90;99.90;;;;;;5075420;28;20045;-79
2023/06/16 03:00:11;;;;;;;14.32;6.93;;;13.90;99.90;;;;;;5075622;28;20048;-79
2023/06/16 03:03:01;;;;;;;12.25;6.03;;;13.80;99.90;;;;;;5076193;28;20044;-79
2023/06/16 03:05:31;;;;;;;11.93;5.90;;;13.70;99.90;;;;;;5075635;28;20094;-80
2023/06/16 03:07:58;;;;;;;12.68;6.20;;;13.70;99.90;;;;;;5075608;28;20059;-79
2023/06/16 03:10:25;;;;;;;12.15;5.82;;;13.70;99.90;;;;;;5074248;28;20050;-79
2023/06/16 03:13:14;;;;;;;16.05;6.55;;;13.70;99.90;;;;;;5076474;28;20463;-80
2023/06/16 03:15:42;;;;;;;13.10;6.70;;;13.70;99.90;;;;;;5075276;28;20064;-79
2023/06/16 03:18:09;;;;;;;14.13;6.88;;;13.60;99.90;;;;;;5075493;28;20036;-79
2023/06/16 03:20:37;;;;;;;13.25;6.30;;;13.50;99.90;;;;;;5075094;28;20044;-78
2023/06/16 03:23:13;;;;;;;12.57;6.22;;;13.60;99.90;;;;;;5075572;28;20478;-79
2023/06/16 03:25:41;;;;;;;15.30;6.45;;;13.50;99.90;;;;;;5074426;28;20052;-78
2023/06/16 03:28:11;;;;;;;12.52;6.32;;;13.50;99.90;;;;;;5075331;28;20044;-80
2023/06/16 03:30:37;;;;;;;12.52;6.45;;;13.60;99.90;;;;;;5074674;28;20040;-79
2023/06/16 03:33:08;;;;;;;13.00;6.63;;;13.50;99.90;;;;;;5059270;28;20040;-79
2023/06/16 03:35:38;;;;;;;13.63;6.20;;;13.50;99.90;;;;;;5074771;28;20068;-79
2023/06/16 03:38:11;;;;;;;10.82;5.68;;;13.50;99.90;;;;;;5073981;28;20153;-79
2023/06/16 03:40:41;;;;;;;12.57;6.32;;;13.50;99.90;;;;;;5074870;28;20068;-78
2023/06/16 03:43:08;;;;;;;14.38;6.55;;;13.50;99.90;;;;;;5074835;28;20062;-79
2023/06/16 03:45:35;;;;;;;16.33;7.15;;;13.50;99.90;;;;;;5073811;28;20068;-80
2023/06/16 03:48:02;;;;;;;14.43;7.07;;;13.50;99.90;;;;;;5076286;28;20041;-79
2023/06/16 03:50:35;;;;;;;15.27;6.65;;;13.40;99.90;;;;;;5073670;28;20440;-79
2023/06/16 03:53:02;;;;;;;12.63;6.18;;;13.40;99.90;;;;;;5058680;28;20055;-78
2023/06/16 03:55:42;;;;;;;16.30;7.07;;;13.40;99.90;;;;;;5074557;28;20044;-78
2023/06/16 03:58:10;;;;;;;14.02;6.50;;;13.40;99.90;;;;;;5073577;28;20382;-79
2023/06/16 04:00:36;;;;;;;13.38;6.53;;;13.40;99.90;;;;;;5074043;28;20475;-79
2023/06/16 04:03:03;;;;;;;15.07;7.40;;;13.40;99.90;;;;;;5074437;28;20051;-80
2023/06/16 04:05:32;;;;;;;18.05;7.32;;;13.40;99.90;;;;;;5073506;28;20044;-80
2023/06/16 04:08:00;;;;;;;12.77;6.13;;;13.40;99.90;;;;;;5074103;28;20048;-78
2023/06/16 04:10:27;;;;;;;13.73;6.82;;;13.40;99.90;;;;;;5073134;28;20049;-80
2023/06/16 04:12:54;;;;;;;18.17;6.68;;;13.30;99.90;;;;;;5073460;28;20057;-80
2023/06/16 04:15:22;;;;;;;14.68;6.28;;;13.30;99.90;;;;;;5074070;28;20052;-79
2023/06/16 04:17:50;;;;;;;15.00;6.72;;;13.20;99.90;;;;;;5057208;28;20051;-80
2023/06/16 04:20:17;;;;;;;16.20;6.45;;;13.20;99.90;;;;;;5074370;28;20048;-79
2023/06/16 04:22:45;;;;;;;16.38;6.30;;;13.20;99.90;;;;;;5074426;28;20466;-79
2023/06/16 04:25:13;;;;;;;16.08;6.43;;;13.30;99.90;;;;;;5073137;28;20048;-78
2023/06/16 04:27:43;;;;;;;13.38;6.35;;;13.40;99.90;;;;;;5074351;28;20044;-80
2023/06/16 04:30:11;;;;;;;11.75;5.90;;;13.40;99.90;;;;;;5076385;28;20047;-79
2023/06/16 04:32:40;;;;;;;14.93;7.20;;;13.50;99.90;;;;;;5094776;28;20040;-79
2023/06/16 04:35:11;;;;;;;15.35;6.85;;;13.60;99.90;;;;;;5077947;28;20048;-79
2023/06/16 04:37:38;;;;;;;14.65;6.40;;;13.60;99.90;;;;;;5076560;28;20051;-78
2023/06/16 04:40:08;;;;;;;12.88;6.18;;;13.60;99.90;;;;;;5077083;28;20130;-79
2023/06/16 04:42:34;;;;;;;14.25;6.07;;;13.70;99.90;;;;;;5094037;28;20537;-78
2023/06/16 04:45:02;;;;;;;15.10;7.78;;;13.80;99.90;;;;;;5076598;28;20070;-79
2023/06/16 04:47:34;;;;;;;13.80;6.55;;;13.90;99.90;;;;;;5094276;28;20043;-80
2023/06/16 04:50:01;;;;;;;17.13;7.47;;;14.00;99.90;;;;;;5093600;28;20161;-79
2023/06/16 04:52:30;;;;;;;18.58;6.90;;;14.10;99.90;;;;;;5093049;28;20040;-79
2023/06/16 04:54:58;;;;;;;16.88;7.65;;;14.20;99.90;;;;;;5094550;28;20102;-78
2023/06/16 04:57:25;;;;;;;16.05;7.50;;;14.30;99.90;;;;;;5076782;28;20040;-79
2023/06/16 04:59:51;;;;;;;19.45;7.05;;;14.50;99.90;;;;;;5094343;28;20044;-80
2023/06/16 05:02:19;;;;;;;12.82;6.65;;;14.60;99.90;;;;;;5093810;28;20077;-78
2023/06/16 05:04:47;;;;;;;13.85;6.57;;;14.70;99.90;;;;;;5094066;28;20105;-78
2023/06/16 05:07:14;;;;;;;15.57;7.00;;;14.80;99.90;;;;;;5077089;28;20051;-79
2023/06/16 05:09:41;;;;;;;18.00;7.03;;;14.90;99.90;;;;;;5093418;28;20044;-81
2023/06/16 05:12:09;;;;;;;16.17;6.93;;;15.10;99.90;;;;;;5076831;28;20101;-79
2023/06/16 05:14:36;;;;;;;14.15;7.38;;;15.10;99.90;;;;;;5094707;28;20090;-80
2023/06/16 05:17:05;;;;;;;14.25;7.35;;;15.20;99.90;;;;;;5093050;28;20043;-79
2023/06/16 05:19:32;;;;;;;15.68;7.10;;;15.30;99.90;;;;;;5094677;28;20044;-80
2023/06/16 05:21:58;;;;;;;16.60;7.45;;;15.40;99.90;;;;;;5093773;28;20044;-79
2023/06/16 05:24:27;;;;;;;15.50;7.15;;;15.50;99.90;;;;;;5093826;28;20058;-79
2023/06/16 05:26:53;;;;;;;14.43;7.15;;;15.60;99.90;;;;;;5098356;28;20462;-80
2023/06/16 05:29:20;;;;;;;15.45;6.80;;;15.70;99.90;;;;;;5097621;28;20052;-79
2023/06/16 05:31:47;;;;;;;15.13;7.50;;;15.80;99.90;;;;;;5079533;28;20471;-80
2023/06/16 05:34:14;;;;;;;14.63;7.30;;;16.00;99.90;;;;;;5077077;28;20103;-80
2023/06/16 05:36:41;;;;;;;13.65;6.82;;;16.10;99.90;;;;;;5077115;28;20102;-80
2023/06/16 05:39:13;;;;;;;16.73;5.95;;;16.30;99.90;;;;;;5076972;28;20067;-79
2023/06/16 05:41:40;;;;;;;13.38;6.72;;;16.40;99.90;;;;;;5076742;28;20041;-79
2023/06/16 05:44:09;;;;;;;14.23;6.45;;;16.50;99.90;;;;;;5090063;28;20429;-79
2023/06/16 05:46:37;;;;;;;19.42;6.57;;;16.60;99.90;;;;;;5098490;28;20036;-81
2023/06/16 05:49:04;;;;;;;12.45;6.40;;;16.60;99.90;;;;;;5097501;28;20044;-80
2023/06/16 05:51:31;;;;;;;17.25;7.40;;;16.70;99.90;;;;;;5096251;28;20328;-80
2023/06/16 05:53:58;;;;;;;14.75;6.78;;;16.90;99.90;;;;;;5097755;28;20036;-79
2023/06/16 05:56:26;;;;;;;16.92;7.05;;;17.00;99.90;;;;;;5097120;28;20044;-79
2023/06/16 05:58:53;;;;;;;15.70;7.35;;;17.20;99.90;;;;;;5097097;28;20033;-80
2023/06/16 06:01:19;;;;;;;18.85;7.15;;;17.30;99.90;;;;;;5096372;28;20040;-79
2023/06/16 06:03:46;;;;;;;15.63;6.95;;;17.40;99.90;;;;;;5096165;28;20115;-80
2023/06/16 06:06:17;;;;;;;18.50;7.72;;;17.40;99.90;;;;;;5097733;28;20036;-79
2023/06/16 06:08:44;;;;;;;14.98;7.13;;;17.50;99.90;;;;;;5096733;28;20048;-79
2023/06/16 06:11:13;;;;;;;14.85;6.95;;;17.70;99.90;;;;;;5095915;28;20060;-78
2023/06/16 06:13:40;;;;;;;15.70;6.45;;;17.70;99.90;;;;;;5094281;28;20486;-81
2023/06/16 06:16:11;;;;;;;13.25;6.40;;;17.80;99.90;;;;;;5096231;28;20083;-81
2023/06/16 06:18:38;;;;;;;15.65;6.57;;;17.90;99.90;;;;;;5094660;28;20122;-84
2023/06/16 06:21:05;;;;;;;16.45;7.18;;;18.10;99.90;;;;;;5095693;28;20036;-83
2023/06/16 06:23:32;;;;;;;15.25;6.03;;;18.20;99.90;;;;;;5095255;28;20040;-81
2023/06/16 06:28:45;;;;;;;14.77;6.80;;;18.40;99.90;;;;;;5093697;28;20094;-80
2023/06/16 06:31:12;;;;;;;13.02;6.43;;;18.60;99.90;;;;;;5083394;28;20151;-80
2023/06/16 06:33:39;;;;;;;16.63;6.50;;;18.70;99.90;;;;;;5076535;28;20044;-80
2023/06/16 06:36:06;;;;;;;11.88;5.90;;;18.70;99.90;;;;;;5038136;28;20057;-81
2023/06/16 06:38:33;;;;;;;20.50;6.47;;;18.80;99.90;;;;;;5021197;28;20049;-80
2023/06/16 06:41:00;;;;;;;13.07;5.95;;;18.90;99.90;;;;;;5038614;28;20045;-80
2023/06/16 06:43:27;;;;;;;13.20;6.18;;;19.10;99.90;;;;;;5038700;28;20055;-80
2023/06/16 06:46:04;;;;;;;12.02;5.90;;;19.30;99.90;;;;;;5038665;28;20052;-80
2023/06/16 06:48:38;;;;;;;15.32;5.95;;;19.40;99.90;;;;;;5023700;28;20124;-80
2023/06/16 06:51:10;;;;;;;;;;;19.50;99.90;;;;;;5021876;28;20045;-80
2023/06/16 06:53:37;;;;;;;14.10;5.75;;;19.50;99.90;;;;;;5039064;28;19928;-81
2023/06/16 06:56:03;;;;;;;14.30;6.30;;;19.60;99.90;;;;;;5056480;28;20106;-79
2023/06/16 06:58:31;;;;;;;11.23;5.45;;;19.70;99.90;;;;;;5037482;28;20102;-81
2023/06/16 07:00:57;;;;;;;12.38;5.55;;;19.80;99.90;;;;;;5022111;28;20430;-81
2023/06/16 07:03:26;;;;;;;11.25;5.45;;;19.90;99.90;;;;;;5056228;28;20116;-79
2023/06/16 07:05:53;;;;;;;12.57;5.90;;;20.00;99.90;;;;;;5021071;28;20450;-80
2023/06/16 07:08:20;;;;;;;12.15;5.30;;;20.20;99.90;;;;;;5038995;28;20057;-79
2023/06/16 07:10:46;;;;;;;15.90;5.40;;;20.40;99.90;;;;;;5054687;28;20037;-80
2023/06/16 07:13:13;;;;;;;12.82;6.10;;;20.50;99.90;;;;;;5055628;28;20521;-80
2023/06/16 07:15:40;;;;;;;13.93;5.82;;;20.70;99.90;;;;;;5056053;28;20037;-80
2023/06/16 07:18:07;;;;;;;13.35;5.93;;;20.80;99.90;;;;;;5055566;28;20037;-82
2023/06/16 07:20:33;;;;;;;12.50;5.18;;;20.80;99.90;;;;;;5038160;28;20053;-79
2023/06/16 07:23:00;;;;;;;12.25;5.57;;;20.90;99.90;;;;;;5038321;28;20451;-79
2023/06/16 07:25:32;;;;;;;9.43;4.82;;;21.00;99.90;;;;;;5054983;28;20045;-80
2023/06/16 07:27:59;;;;;;;11.68;4.38;;;21.10;99.90;;;;;;5055579;28;20048;-79
2023/06/16 07:30:26;;;;;;;12.52;4.95;;;21.20;99.90;;;;;;5054514;28;20055;-79
2023/06/16 07:32:53;;;;;;;12.43;4.72;;;21.30;99.90;;;;;;5055717;28;20041;-81
2023/06/16 07:35:20;;;;;;;9.65;4.60;;;21.50;99.90;;;;;;5061583;28;20446;-80
2023/06/16 07:37:47;;;;;;;13.55;4.63;;;21.70;99.90;;;;;;5074907;28;20383;-80
2023/06/16 07:40:13;;;;;;;13.48;4.82;;;21.80;99.90;;;;;;5075322;28;20041;-79
2023/06/16 07:42:42;;;;;;;13.48;4.30;;;21.80;99.90;;;;;;5075182;28;20079;-80
2023/06/16 07:45:09;;;;;;;12.73;4.43;;;21.90;99.90;;;;;;5073678;28;20059;-79
2023/06/16 07:47:36;;;;;;;12.20;4.70;;;21.90;99.90;;;;;;5075163;28;20064;-79
2023/06/16 07:50:03;;;;;;;13.73;4.70;;;22.00;99.90;;;;;;5074025;28;20040;-80
2023/06/16 07:52:30;;;;;;;13.27;4.90;;;22.20;99.90;;;;;;5074568;28;20164;-80
2023/06/16 07:54:59;;;;;;;10.65;5.10;;;22.20;99.90;;;;;;5074394;28;20044;-78
2023/06/16 07:57:29;;;;;;;13.00;4.97;;;22.30;99.90;;;;;;5073035;28;20118;-79
2023/06/16 07:59:57;;;;;;;13.57;4.78;;;22.40;99.90;;;;;;5074195;28;20450;-80
2023/06/16 08:02:23;;;;;;;9.50;4.47;;;22.40;99.90;;;;;;5075268;28;20098;-82
2023/06/16 08:04:51;;;;;;;9.90;4.32;;;22.60;99.90;;;;;;5073039;28;20839;-80
2023/06/16 08:07:17;;;;;;;8.63;4.00;;;22.80;99.90;;;;;;5075406;28;20044;-81
2023/06/16 08:09:47;;;;;;;15.48;4.45;;;22.90;99.90;;;;;;5079105;28;20032;-83
2023/06/16 08:12:13;;;;;;;8.38;3.72;;;23.00;99.90;;;;;;5075864;28;20130;-81
2023/06/16 08:14:41;;;;;;;9.98;3.83;;;23.30;99.90;;;;;;5095426;28;20047;-84
2023/06/16 08:17:08;;;;;;;11.23;3.60;;;23.30;99.90;;;;;;5092638;28;20052;-81
2023/06/16 08:19:35;;;;;;;15.02;3.95;;;23.50;99.90;;;;;;5093598;28;20543;-87
2023/06/16 08:22:02;;;;;;;7.35;3.33;;;23.70;99.90;;;;;;5077151;28;20434;-80
2023/06/16 08:24:30;;;;;;;8.57;3.45;;;24.00;99.90;;;;;;5075614;28;20137;-81
2023/06/16 08:26:58;;;;;;;7.53;3.10;;;24.20;99.90;;;;;;5094590;28;20664;-78
2023/06/16 08:29:25;;;;;;;10.50;3.47;;;24.30;99.90;;;;;;5094712;28;20118;-82
2023/06/16 08:31:51;;;;;;;9.07;3.53;;;24.60;99.90;;;;;;5074730;28;20418;-82
2023/06/16 08:34:18;;;;;;;7.70;3.40;;;24.80;99.90;;;;;;5068411;28;20126;-81
2023/06/16 08:36:46;;;;;;;11.95;3.95;;;25.00;99.90;;;;;;5037033;28;20040;-82
2023/06/16 08:39:12;;;;;;;11.48;3.72;;;24.80;99.10;;;;;;5053376;28;20075;-81
2023/06/16 08:41:39;;;;;;;9.15;3.50;;;24.90;99.00;;;;;;5055505;28;20037;-82
2023/06/16 08:44:07;;;;;;;10.63;3.40;;;25.00;98.00;;;;;;5056250;28;20408;-79
2023/06/16 08:46:33;;;;;;;8.45;3.92;;;25.20;97.60;;;;;;5053795;28;20045;-82
2023/06/16 08:49:00;;;;;;;7.85;3.83;;;25.30;97.30;;;;;;5064081;28;20051;-85
2023/06/16 08:51:27;;;;;;;11.35;3.45;;;25.50;95.60;;;;;;5019586;28;20076;-78
2023/06/16 08:53:54;;;;;;;10.45;3.10;;;25.50;94.80;;;;;;5053950;28;20040;-78
2023/06/16 08:56:21;;;;;;;11.02;4.05;;;25.40;92.80;;;;;;5036222;28;20410;-78
2023/06/16 08:58:47;;;;;;;10.13;3.17;;;25.30;91.60;;;;;;5053113;28;20045;-78
2023/06/16 09:01:17;;;;;;;12.80;3.47;;;25.20;90.90;;;;;;5057299;28;20098;-78
2023/06/16 09:03:47;;;;;;;8.98;3.65;;;25.30;88.70;;;;;;5064716;28;20045;-78
2023/06/16 09:06:15;;;;;;;10.52;3.08;;;25.30;88.70;;;;;;5055139;28;20045;-78
2023/06/16 09:08:41;;;;;;;10.18;3.28;;;25.30;87.30;;;;;;5056551;28;20082;-78
2023/06/16 09:11:08;;;;;;;9.00;3.35;;;25.30;88.70;;;;;;5072795;28;20067;-79
2023/06/16 09:13:35;;;;;;;9.05;3.30;;;25.20;87.50;;;;;;5074004;28;20082;-79
2023/06/16 09:16:02;;;;;;;13.75;3.45;;;25.50;87.70;;;;;;5037585;28;20041;-78
2023/06/16 09:18:30;;;;;;;7.68;3.53;;;25.70;86.90;;;;;;5039070;28;20463;-78
2023/06/16 09:21:00;;;;;;;12.65;4.00;;;25.60;84.10;;;;;;5074207;28;20048;-78
2023/06/16 09:23:31;;;;;;;15.27;3.30;;;25.80;84.90;;;;;;5040012;28;20044;-80
2023/06/16 09:25:58;;;;;;;11.75;3.00;;;26.00;83.60;;;;;;5057075;28;20052;-81
2023/06/16 09:28:25;;;;;;;8.80;3.38;;;26.20;83.90;;;;;;5056054;28;20102;-79
2023/06/16 09:30:52;;;;;;;12.55;3.45;;;26.30;84.30;;;;;;5072034;28;20041;-78
2023/06/16 09:33:36;;;;;;;12.80;3.63;;;26.40;81.50;;;;;;5073393;28;20037;-78
2023/06/16 09:36:03;;;;;;;11.27;3.72;;;26.50;81.00;;;;;;5092361;28;20067;-78
2023/06/16 09:38:30;;;;;;;13.82;3.83;;;26.60;81.30;;;;;;5092348;28;20077;-79
2023/06/16 09:40:57;;;;;;;17.95;3.95;;;26.70;79.80;;;;;;5093883;28;20455;-80
2023/06/16 09:43:24;;;;;;;8.23;3.72;;;26.80;81.40;;;;;;5093126;28;20048;-78
2023/06/16 09:45:51;;;;;;;14.55;3.75;;;27.10;80.00;;;;;;5092730;28;20086;-78
2023/06/16 09:48:18;;;;;;;14.60;3.95;;;27.40;79.80;;;;;;5076265;28;20051;-78
2023/06/16 09:50:44;;;;;;;11.50;3.88;;;27.70;79.10;;;;;;5092115;28;20039;-79
2023/06/16 09:53:13;;;;;;;11.20;3.95;;;27.90;76.40;;;;;;5092058;28;20044;-82
2023/06/16 09:55:43;;;;;;;8.77;3.78;;;28.20;77.50;;;;;;5072497;28;20063;-81
2023/06/16 09:58:10;;;;;;;8.65;3.40;;;28.20;72.60;;;;;;5054563;28;20094;-78
2023/06/16 10:00:37;;;;;;;8.27;3.80;;;28.30;76.10;;;;;;5072429;28;20045;-82
2023/06/16 10:03:04;;;;;;;14.57;3.83;;;28.50;76.20;;;;;;5071910;28;20455;-78
2023/06/16 10:05:31;;;;;;;9.95;3.58;;;29.00;73.50;;;;;;5072893;28;20052;-78
2023/06/16 10:07:58;;;;;;;9.88;3.63;;;29.20;73.50;;;;;;5072873;28;20041;-80
2023/06/16 10:10:29;;;;;;;9.75;3.63;;;29.10;72.20;;;;;;5072148;28;20060;-81
2023/06/16 10:12:56;;;;;;;11.13;3.67;;;29.30;74.40;;;;;;5094175;28;20036;-80
2023/06/16 10:15:24;;;;;;;11.00;4.18;;;29.60;72.40;;;;;;5097780;28;20036;-81
2023/06/16 10:17:51;;;;;;;10.50;3.60;;;29.50;71.90;;;;;;5097200;28;20067;-81
2023/06/16 10:20:19;;;;;;;11.65;3.70;;;29.40;72.30;;;;;;5079680;28;20044;-84
2023/06/16 10:22:47;;;;;;;10.77;3.40;;;29.50;71.30;;;;;;5097885;28;20047;-81
2023/06/16 10:25:14;;;;;;;12.43;3.58;;;29.80;70.00;;;;;;5095172;28;20044;-80
2023/06/16 10:27:41;;;;;;;9.77;3.30;;;30.50;68.20;;;;;;5080951;28;20048;-79
2023/06/16 10:30:09;;;;;;;14.90;4.30;;;30.30;68.40;;;;;;5082815;28;20037;-80
2023/06/16 10:32:37;;;;;;;11.23;3.60;;;30.60;68.70;;;;;;5075471;28;20420;-78
2023/06/16 10:35:05;;;;;;;9.85;3.38;;;30.80;67.70;;;;;;5047682;28;20068;-78
2023/06/16 10:37:31;;;;;;;6.65;3.08;;;31.40;67.10;;;;;;5056283;28;20064;-78
2023/06/16 10:39:58;;;;;;;7.43;3.10;;;31.20;64.00;;;;;;5038811;28;20029;-78
2023/06/16 10:42:25;;;;;;;9.80;3.58;;;31.10;64.40;;;;;;5039146;28;20057;-79
2023/06/16 10:44:52;;;;;;;15.00;3.65;;;31.10;64.40;;;;;;5038292;28;20136;-79
2023/06/16 10:47:19;;;;;;;11.82;3.67;;;31.40;65.00;;;;;;5056154;28;20102;-78
2023/06/16 10:49:46;;;;;;;9.05;3.50;;;30.60;65.40;;;;;;5056184;28;20460;-76
2023/06/16 10:52:12;;;;;;;8.98;3.65;;;31.10;65.40;;;;;;5055883;28;20682;-81
2023/06/16 10:54:39;;;;;;;9.23;3.65;;;31.90;64.80;;;;;;5058210;28;20098;-79
2023/06/16 10:57:06;;;;;;;10.05;3.42;;;32.50;61.40;;;;;;5055195;28;20037;-76
2023/06/16 10:59:36;;;;;;;8.80;3.47;;;32.60;59.60;;;;;;5038591;28;20064;-76
2023/06/16 11:02:02;;;;;;;7.82;3.22;;;33.30;59.00;;;;;;5055655;28;20426;-78
2023/06/16 11:04:31;;;;;;;12.25;3.30;;;33.90;58.80;;;;;;5055211;28;20045;-79
2023/06/16 11:06:57;;;;;;;10.95;3.72;;;34.30;58.60;;;;;;5056285;28;20049;-77
2023/06/16 11:09:39;;;;;;;6.25;3.13;;;34.80;58.00;;;;;;5040942;28;20045;-76
2023/06/16 11:12:06;;;;;;;6.68;3.03;;;35.00;57.80;;;;;;5037798;28;20032;-77
2023/06/16 11:14:33;;;;;;;8.90;3.40;;;34.50;56.20;;;;;;5038461;28;20423;-76
2023/06/16 11:17:00;;;;;;;12.63;3.47;;;34.10;57.30;;;;;;5054713;28;20116;-77
2023/06/16 11:19:27;;;;;;;11.23;3.55;;;34.20;57.20;;;;;;5038339;28;20375;-77
2023/06/16 11:21:54;;;;;;;11.15;3.45;;;35.20;56.40;;;;;;5038078;28;20040;-77
2023/06/16 11:24:20;;;;;;;12.50;3.45;;;35.70;55.90;;;;;;5037533;28;20134;-78
2023/06/16 11:26:47;;;;;;;7.03;3.08;;;35.90;56.10;;;;;;5055685;28;20052;-77
2023/06/16 11:29:15;;;;;;;8.65;3.20;;;36.00;55.10;;;;;;5069134;28;20466;-77
2023/06/16 11:31:41;;;;;;;7.22;2.90;;;36.20;53.90;;;;;;5059408;28;20375;-77
2023/06/16 11:34:08;;;;;;;9.00;3.42;;;36.70;54.00;;;;;;5059091;28;20121;-78
2023/06/16 11:36:35;;;;;;;7.22;2.90;;;37.10;54.40;;;;;;5083129;28;20048;-77
2023/06/16 11:39:04;;;;;;;8.13;3.15;;;37.30;54.30;;;;;;5073022;28;20132;-78
2023/06/16 11:41:31;;;;;;;9.23;3.45;;;37.70;53.60;;;;;;5075756;28;20072;-77
2023/06/16 11:43:58;;;;;;;9.20;3.42;;;37.90;53.30;;;;;;5074798;28;20041;-80
2023/06/16 11:46:25;;;;;;;8.82;3.47;;;38.10;53.00;;;;;;5091348;28;20153;-77
2023/06/16 11:48:51;;;;;;;8.93;3.35;;;38.10;52.50;;;;;;5083346;28;20072;-76
2023/06/16 11:51:18;;;;;;;7.60;2.97;;;38.10;51.90;;;;;;5073323;28;20067;-77
2023/06/16 11:53:45;;;;;;;7.88;3.30;;;38.60;52.70;;;;;;5074073;28;20044;-77
2023/06/16 11:56:13;;;;;;;7.88;3.22;;;39.00;51.60;;;;;;5074200;28;20068;-77
2023/06/16 11:58:42;;;;;;;7.35;3.20;;;38.50;50.80;;;;;;5073143;28;20053;-77
2023/06/16 12:01:12;;;;;;;8.02;2.90;;;38.40;50.80;;;;;;5074515;28;20481;-78
2023/06/16 12:03:39;;;;;;;7.40;2.85;;;38.50;50.80;;;;;;5073168;28;20063;-77
2023/06/16 12:06:26;;;;;;;10.38;3.40;;;38.50;51.20;;;;;;5074082;28;20071;-77
2023/06/16 12:08:53;;;;;;;10.95;3.40;;;38.50;50.90;;;;;;5074355;28;20068;-77
2023/06/16 12:11:21;;;;;;;10.20;2.92;;;38.00;50.70;;;;;;5072511;28;20465;-76
2023/06/16 12:13:47;;;;;;;6.65;3.00;;;38.00;51.30;;;;;;5056934;28;20040;-77
2023/06/16 12:16:15;;;;;;;7.90;2.72;;;38.50;51.20;;;;;;5073480;28;20079;-77
2023/06/16 12:18:42;;;;;;;12.65;3.00;;;39.60;50.50;;;;;;5072872;28;20037;-76
2023/06/16 12:21:08;;;;;;;5.75;3.05;;;39.70;50.20;;;;;;5071346;28;20056;-77
2023/06/16 12:23:35;;;;;;;8.20;3.15;;;39.80;49.60;;;;;;5075491;28;20032;-77
2023/06/16 12:26:02;;;;;;;7.78;3.13;;;40.30;49.60;;;;;;5093644;28;20454;-76
2023/06/16 12:28:29;;;;;;;8.85;3.20;;;40.30;48.90;;;;;;5065122;28;20447;-77
2023/06/16 12:30:55;;;;;;;9.23;3.42;;;39.60;48.80;;;;;;5097447;28;20037;-77
2023/06/16 12:33:22;;;;;;;10.60;3.20;;;39.00;48.20;;;;;;5084008;28;20371;-78
2023/06/16 12:35:49;;;;;;;9.93;3.17;;;39.20;49.30;;;;;;5076093;28;20052;-77
2023/06/16 12:38:16;;;;;;;8.18;3.15;;;39.70;48.10;;;;;;5072270;28;20734;-78
2023/06/16 12:40:43;;;;;;;7.43;3.05;;;40.10;48.70;;;;;;5043996;28;20049;-77
2023/06/16 12:43:10;;;;;;;7.95;3.20;;;40.80;48.80;;;;;;5021198;28;20065;-77
2023/06/16 12:45:36;;;;;;;9.25;3.33;;;41.20;48.30;;;;;;5055324;28;20398;-77